Time;durP1;ratioP1;P1;durP2;ratioP2;P2;SDS_P1;SDS_P2;PMS_P1;PMS_P2;Temp;Humidity;BMP_temperature;BMP_pressure;BME280_temperature;BME280_humidity;BME280_pressure;Samples;Min_cycle;Max_cycle;Signal;HPM_P1;HPM_P2
2024/01/12 00:01:47;;;;;;;65.35;37.05;;;-2.10;72.50;;;;;;5012521;28;20301;-78
2024/01/12 00:04:16;;;;;;;67.60;35.38;;;-2.20;72.40;;;;;;5005408;28;20236;-78
2024/01/12 00:06:45;;;;;;;70.15;36.67;;;-2.20;72.40;;;;;;5010558;28;20530;-78
2024/01/12 00:09:14;;;;;;;69.38;36.78;;;-2.20;72.20;;;;;;5023060;28;20200;-78
2024/01/12 00:11:42;;;;;;;71.10;36.35;;;-2.30;72.20;;;;;;5009631;28;20220;-78
2024/01/12 00:14:12;;;;;;;71.25;36.45;;;-2.30;72.10;;;;;;5015434;28;20299;-78
2024/01/12 00:16:44;;;;;;;76.90;40.50;;;-2.40;72.00;;;;;;5025056;28;20225;-78
2024/01/12 00:19:13;;;;;;;83.57;37.95;;;-2.50;72.00;;;;;;5027242;28;20584;-78
2024/01/12 00:21:43;;;;;;;72.13;37.97;;;-2.50;72.30;;;;;;5009239;28;21023;-78
2024/01/12 00:24:11;;;;;;;74.60;38.55;;;-2.50;72.40;;;;;;5007648;28;20216;-78
2024/01/12 00:26:39;;;;;;;75.63;34.85;;;-2.50;72.50;;;;;;5005991;28;20214;-78
2024/01/12 00:29:07;;;;;;;65.43;34.50;;;-2.50;72.40;;;;;;5005938;28;20332;-78
2024/01/12 00:31:35;;;;;;;66.45;36.45;;;-2.50;72.30;;;;;;5010210;28;20256;-78
2024/01/12 00:34:03;;;;;;;75.55;38.22;;;-2.50;72.30;;;;;;5016915;28;20222;-78
2024/01/12 00:36:32;;;;;;;77.30;38.42;;;-2.60;72.20;;;;;;5018737;28;20241;-78
2024/01/12 00:39:00;;;;;;;70.65;35.35;;;-2.60;72.00;;;;;;5006783;28;20796;-78
2024/01/12 00:41:30;;;;;;;73.20;36.17;;;-2.70;72.00;;;;;;5012372;28;20237;-78
2024/01/12 00:43:59;;;;;;;64.65;33.83;;;-2.70;72.20;;;;;;5007701;28;20314;-78
2024/01/12 00:46:27;;;;;;;63.08;33.28;;;-2.70;72.30;;;;;;5013623;28;20228;-78
2024/01/12 00:48:55;;;;;;;59.65;32.90;;;-2.80;72.20;;;;;;5008001;28;20281;-78
2024/01/12 00:51:23;;;;;;;63.22;31.75;;;-2.80;72.30;;;;;;5010766;28;20213;-78
2024/01/12 00:53:53;;;;;;;70.60;34.42;;;-2.80;72.30;;;;;;5012611;28;20348;-78
2024/01/12 00:56:21;;;;;;;66.50;35.03;;;-2.80;72.20;;;;;;5015668;28;20232;-78
2024/01/12 00:58:49;;;;;;;65.18;31.92;;;-2.80;72.30;;;;;;5024928;28;20655;-78
2024/01/12 01:01:18;;;;;;;56.17;32.10;;;-2.80;72.30;;;;;;5007997;28;21046;-78
2024/01/12 01:03:46;;;;;;;64.55;31.75;;;-2.80;72.50;;;;;;5007182;28;20206;-78
2024/01/12 01:06:14;;;;;;;54.80;30.58;;;-2.80;72.50;;;;;;5008074;28;20733;-78
2024/01/12 01:08:43;;;;;;;60.97;32.35;;;-2.70;72.50;;;;;;5005185;28;20280;-78
2024/01/12 01:11:12;;;;;;;63.00;32.90;;;-2.70;72.60;;;;;;5011780;28;20208;-78
2024/01/12 01:13:40;;;;;;;60.17;33.65;;;-2.60;72.60;;;;;;5019809;28;20224;-78
2024/01/12 01:16:08;;;;;;;59.70;31.90;;;-2.60;72.50;;;;;;5021586;28;20661;-78
2024/01/12 01:18:36;;;;;;;64.88;33.70;;;-2.60;72.50;;;;;;5017114;28;20202;-78
2024/01/12 01:21:05;;;;;;;88.38;37.22;;;-2.60;72.30;;;;;;5017057;28;20511;-78
2024/01/12 01:23:33;;;;;;;58.97;31.98;;;-2.70;72.20;;;;;;5020225;28;20216;-78
2024/01/12 01:26:02;;;;;;;63.78;35.45;;;-2.70;72.30;;;;;;5012654;28;20220;-78
2024/01/12 01:28:31;;;;;;;58.70;32.28;;;-2.70;72.40;;;;;;5014280;28;20219;-78
2024/01/12 01:30:59;;;;;;;114.05;50.80;;;-2.70;72.30;;;;;;5014855;28;20304;-78
2024/01/12 01:33:27;;;;;;;121.55;52.00;;;-2.70;72.30;;;;;;5017468;28;20213;-78
2024/01/12 01:35:57;;;;;;;100.88;47.47;;;-2.70;72.20;;;;;;5014737;28;20219;-78
2024/01/12 01:38:25;;;;;;;96.35;44.67;;;-2.80;72.20;;;;;;5019495;28;20697;-78
2024/01/12 01:40:54;;;;;;;59.42;31.38;;;-2.80;72.30;;;;;;5023552;28;20240;-78
2024/01/12 01:43:22;;;;;;;62.13;32.65;;;-2.80;72.30;;;;;;5025631;28;20249;-78
2024/01/12 01:45:51;;;;;;;69.68;34.28;;;-2.80;72.20;;;;;;5015410;28;20261;-78
2024/01/12 01:48:20;;;;;;;67.50;34.50;;;-2.80;72.30;;;;;;5010858;28;20205;-78
2024/01/12 01:50:48;;;;;;;61.70;31.42;;;-2.80;72.40;;;;;;5015652;28;20251;-78
2024/01/12 01:53:16;;;;;;;60.75;31.63;;;-2.80;72.30;;;;;;5027440;28;20235;-78
2024/01/12 01:55:45;;;;;;;74.00;33.10;;;-2.80;72.30;;;;;;5012656;28;20224;-78
2024/01/12 01:58:14;;;;;;;69.43;32.80;;;-2.80;72.20;;;;;;5013558;28;20217;-78
2024/01/12 02:00:44;;;;;;;65.88;33.20;;;-2.80;72.20;;;;;;5027579;28;20242;-79
2024/01/12 02:03:15;;;;;;;64.07;32.00;;;-2.80;72.20;;;;;;5036253;28;20233;-78
2024/01/12 02:05:44;;;;;;;76.63;32.92;;;-2.80;72.10;;;;;;5038662;28;20248;-78
2024/01/12 02:08:13;;;;;;;69.25;32.53;;;-2.90;72.10;;;;;;5014808;28;20225;-78
2024/01/12 02:10:41;;;;;;;62.42;32.25;;;-2.90;72.00;;;;;;5014304;28;20223;-78
2024/01/12 02:13:10;;;;;;;65.28;33.63;;;-2.90;72.00;;;;;;5028907;28;20282;-78
2024/01/12 02:15:38;;;;;;;60.17;30.65;;;-3.00;72.00;;;;;;5028211;28;20215;-78
2024/01/12 02:18:06;;;;;;;60.05;32.22;;;-3.00;72.00;;;;;;5015050;28;20213;-78
2024/01/12 02:20:35;;;;;;;59.70;28.58;;;-3.10;72.00;;;;;;5017992;28;20215;-78
2024/01/12 02:23:05;;;;;;;61.63;32.67;;;-3.00;72.20;;;;;;5009153;28;20218;-78
2024/01/12 02:25:34;;;;;;;60.33;31.60;;;-3.00;72.40;;;;;;5015149;28;20206;-78
2024/01/12 02:28:02;;;;;;;65.43;32.35;;;-2.90;72.50;;;;;;5013568;28;20653;-78
2024/01/12 02:30:31;;;;;;;57.10;31.27;;;-2.90;72.50;;;;;;5020661;28;20267;-78
2024/01/12 02:33:05;;;;;;;57.08;31.60;;;-2.80;72.60;;;;;;5013435;28;20296;-79
2024/01/12 02:35:34;;;;;;;60.42;29.83;;;-2.70;72.60;;;;;;5029113;28;20261;-79
2024/01/12 02:38:02;;;;;;;59.15;31.40;;;-2.70;72.50;;;;;;5012587;28;20259;-78
2024/01/12 02:40:31;;;;;;;61.78;33.35;;;-2.70;72.50;;;;;;5021564;28;20288;-78
2024/01/12 02:43:01;;;;;;;64.70;34.55;;;-2.60;72.50;;;;;;5024096;28;20240;-78
2024/01/12 02:45:29;;;;;;;60.88;31.70;;;-2.60;72.50;;;;;;5028627;28;20206;-78
2024/01/12 02:47:57;;;;;;;69.57;34.10;;;-2.60;72.50;;;;;;5008189;28;20222;-78
2024/01/12 02:50:25;;;;;;;67.05;34.95;;;-2.60;72.50;;;;;;5010834;28;20201;-78
2024/01/12 02:52:53;;;;;;;60.72;31.05;;;-2.60;72.40;;;;;;5028086;28;20214;-78
2024/01/12 02:55:21;;;;;;;60.85;32.42;;;-2.60;72.50;;;;;;5012545;28;20220;-78
2024/01/12 02:57:50;;;;;;;72.10;34.83;;;-2.60;72.60;;;;;;5013630;28;20639;-78
2024/01/12 03:00:19;;;;;;;66.82;33.30;;;-2.50;72.60;;;;;;5011232;28;20209;-78
2024/01/12 03:02:47;;;;;;;64.45;34.92;;;-2.50;72.60;;;;;;5013993;28;20249;-79
2024/01/12 03:05:15;;;;;;;82.30;36.65;;;-2.40;72.70;;;;;;5025222;28;20301;-76
2024/01/12 03:07:43;;;;;;;71.00;35.13;;;-2.40;72.70;;;;;;5010075;28;20224;-79
2024/01/12 03:10:11;;;;;;;70.57;35.72;;;-2.40;72.60;;;;;;5010076;28;20534;-78
2024/01/12 03:12:39;;;;;;;75.70;35.65;;;-2.30;72.70;;;;;;5006008;28;20249;-78
2024/01/12 03:15:09;;;;;;;74.90;38.80;;;-2.30;72.70;;;;;;5010199;28;20289;-78
2024/01/12 03:17:37;;;;;;;77.15;36.17;;;-2.30;72.80;;;;;;5011599;28;20546;-78
2024/01/12 03:20:08;;;;;;;73.40;36.95;;;-2.20;72.80;;;;;;5010662;28;20275;-78
2024/01/12 03:22:36;;;;;;;79.75;36.20;;;-2.20;72.90;;;;;;5028982;28;20240;-78
2024/01/12 03:25:05;;;;;;;70.47;36.72;;;-2.20;72.80;;;;;;5014772;28;20265;-78
2024/01/12 03:27:34;;;;;;;64.93;34.58;;;-2.10;72.90;;;;;;5009935;28;20619;-79
2024/01/12 03:30:02;;;;;;;66.28;34.10;;;-2.10;73.00;;;;;;5013463;28;20201;-78
2024/01/12 03:32:33;;;;;;;67.00;36.47;;;-2.10;73.00;;;;;;5023627;28;20226;-78
2024/01/12 03:35:02;;;;;;;60.60;32.83;;;-2.00;73.00;;;;;;5026402;28;20264;-78
2024/01/12 03:37:30;;;;;;;68.32;33.90;;;-2.00;73.00;;;;;;5013912;28;20210;-78
2024/01/12 03:39:58;;;;;;;79.00;34.85;;;-2.00;73.10;;;;;;5013291;28;20220;-78
2024/01/12 03:42:26;;;;;;;69.43;37.55;;;-2.00;73.20;;;;;;5008387;28;20233;-78
2024/01/12 03:44:54;;;;;;;77.70;36.13;;;-1.90;73.20;;;;;;5013146;28;20273;-78
2024/01/12 03:47:22;;;;;;;73.20;37.75;;;-1.90;73.10;;;;;;5011736;28;20209;-78
2024/01/12 03:49:51;;;;;;;63.95;35.30;;;-1.90;73.20;;;;;;5007946;28;20202;-78
2024/01/12 03:52:20;;;;;;;65.68;37.85;;;-1.90;73.30;;;;;;5010989;28;20308;-78
2024/01/12 03:54:47;;;;;;;73.47;35.35;;;-1.80;73.30;;;;;;5010492;28;20194;-78
2024/01/12 03:57:15;;;;;;;70.57;37.92;;;-1.80;73.30;;;;;;5008814;28;20205;-78
2024/01/12 03:59:43;;;;;;;71.47;36.63;;;-1.80;73.30;;;;;;5028431;28;20259;-78
2024/01/12 04:02:12;;;;;;;87.90;41.25;;;-1.80;73.30;;;;;;5011614;28;20636;-78
2024/01/12 04:04:42;;;;;;;75.30;37.35;;;-1.70;73.40;;;;;;5027491;28;20289;-78
2024/01/12 04:07:12;;;;;;;69.60;36.60;;;-1.70;73.40;;;;;;5025494;28;20292;-78
2024/01/12 04:09:39;;;;;;;67.22;35.97;;;-1.70;73.40;;;;;;5012015;28;20222;-78
2024/01/12 04:12:10;;;;;;;66.15;34.63;;;-1.70;73.50;;;;;;5026952;28;20198;-78
2024/01/12 04:14:38;;;;;;;66.03;35.80;;;-1.70;73.50;;;;;;5014057;28;20209;-78
2024/01/12 04:17:06;;;;;;;72.30;37.60;;;-1.60;73.50;;;;;;5009898;28;20206;-78
2024/01/12 04:19:34;;;;;;;77.10;39.83;;;-1.60;73.50;;;;;;5009879;28;20233;-78
2024/01/12 04:22:03;;;;;;;68.05;37.67;;;-1.60;73.60;;;;;;5011467;28;20567;-78
2024/01/12 04:24:32;;;;;;;77.95;38.53;;;-1.60;73.60;;;;;;5011169;28;20784;-78
2024/01/12 04:27:00;;;;;;;68.43;35.63;;;-1.60;73.70;;;;;;5003589;28;20204;-78
2024/01/12 04:29:28;;;;;;;68.18;35.80;;;-1.60;73.70;;;;;;5013441;28;20217;-78
2024/01/12 04:31:56;;;;;;;71.68;37.50;;;-1.50;73.70;;;;;;5005402;28;20229;-78
2024/01/12 04:34:25;;;;;;;68.32;37.20;;;-1.50;73.80;;;;;;5026779;28;20295;-78
2024/01/12 04:36:54;;;;;;;76.78;37.72;;;-1.50;73.80;;;;;;5026854;28;20209;-78
2024/01/12 04:39:22;;;;;;;65.78;36.58;;;-1.50;73.80;;;;;;5010446;28;20311;-78
2024/01/12 04:41:52;;;;;;;70.25;34.72;;;-1.50;73.90;;;;;;5018473;28;20702;-78
2024/01/12 04:44:20;;;;;;;77.85;39.28;;;-1.40;73.80;;;;;;5024345;28;20217;-78
2024/01/12 04:46:48;;;;;;;73.03;35.90;;;-1.40;73.80;;;;;;5011841;28;20201;-78
2024/01/12 04:49:17;;;;;;;71.80;36.88;;;-1.40;73.80;;;;;;5021330;28;20245;-78
2024/01/12 04:51:46;;;;;;;78.88;36.92;;;-1.30;73.80;;;;;;5009579;28;20540;-78
2024/01/12 04:54:14;;;;;;;67.97;36.30;;;-1.30;73.80;;;;;;5011145;28;20213;-78
2024/01/12 04:56:42;;;;;;;77.95;37.30;;;-1.30;73.80;;;;;;5011609;28;20574;-78
2024/01/12 04:59:11;;;;;;;73.72;36.70;;;-1.30;73.80;;;;;;5012141;28;20213;-79
2024/01/12 05:01:39;;;;;;;75.75;39.45;;;-1.30;73.90;;;;;;5008086;28;20240;-78
2024/01/12 05:04:07;;;;;;;67.45;35.95;;;-1.30;73.90;;;;;;5028731;28;20233;-78
2024/01/12 05:06:36;;;;;;;64.60;36.63;;;-1.30;73.90;;;;;;5009167;28;20324;-78
2024/01/12 05:09:06;;;;;;;63.80;33.70;;;-1.30;74.10;;;;;;5016159;28;20572;-78
2024/01/12 05:11:34;;;;;;;66.47;35.95;;;-1.30;74.20;;;;;;5026881;28;20206;-78
2024/01/12 05:14:03;;;;;;;73.07;35.95;;;-1.20;74.10;;;;;;5011548;28;20289;-78
2024/01/12 05:16:33;;;;;;;71.22;36.60;;;-1.20;74.20;;;;;;5009781;28;20198;-78
2024/01/12 05:19:00;;;;;;;75.70;36.03;;;-1.20;74.20;;;;;;5008473;28;20218;-78
2024/01/12 05:21:29;;;;;;;62.20;34.25;;;-1.20;74.20;;;;;;5012932;28;20643;-78
2024/01/12 05:23:57;;;;;;;64.85;35.70;;;-1.10;74.30;;;;;;5009206;28;20804;-78
2024/01/12 05:26:25;;;;;;;72.32;36.42;;;-1.10;74.30;;;;;;5010104;28;20248;-76
2024/01/12 05:28:53;;;;;;;72.72;36.20;;;-1.10;74.30;;;;;;5025077;28;20225;-79
2024/01/12 05:31:21;;;;;;;61.85;34.30;;;-1.10;74.30;;;;;;5026267;28;20660;-79
2024/01/12 05:33:50;;;;;;;55.47;31.70;;;-1.10;74.30;;;;;;5006402;28;20218;-78
2024/01/12 05:36:18;;;;;;;53.40;30.58;;;-1.00;74.40;;;;;;5027519;28;20213;-78
2024/01/12 05:38:46;;;;;;;65.30;35.88;;;-1.00;74.40;;;;;;5008821;28;20218;-78
2024/01/12 05:41:14;;;;;;;65.90;33.42;;;-1.00;74.40;;;;;;5026439;28;20214;-79
2024/01/12 05:43:43;;;;;;;63.03;34.50;;;-1.00;74.40;;;;;;5026144;28;20225;-78
2024/01/12 05:46:10;;;;;;;70.35;38.30;;;-1.00;74.40;;;;;;5012474;28;20532;-78
2024/01/12 05:48:38;;;;;;;63.35;35.30;;;-1.00;74.50;;;;;;5014350;28;20237;-78
2024/01/12 05:51:08;;;;;;;67.53;38.03;;;-1.00;74.50;;;;;;5003452;28;20257;-78
2024/01/12 05:53:36;;;;;;;71.15;36.25;;;-1.00;74.60;;;;;;5007912;28;20201;-78
2024/01/12 05:56:05;;;;;;;71.88;36.25;;;-1.00;74.60;;;;;;5009149;28;20268;-78
2024/01/12 05:58:33;;;;;;;74.95;37.20;;;-0.90;74.60;;;;;;5007779;28;20206;-78
2024/01/12 06:01:01;;;;;;;74.03;39.25;;;-0.90;74.60;;;;;;5006618;28;20231;-78
2024/01/12 06:03:29;;;;;;;72.32;36.08;;;-0.90;74.60;;;;;;5009101;28;20197;-78
2024/01/12 06:05:58;;;;;;;71.38;36.00;;;-0.90;74.60;;;;;;5016365;28;20201;-78
2024/01/12 06:08:27;;;;;;;70.53;39.30;;;-0.90;74.60;;;;;;5024590;28;20210;-78
2024/01/12 06:10:55;;;;;;;75.90;38.65;;;-0.90;74.60;;;;;;5027344;28;20206;-78
2024/01/12 06:13:23;;;;;;;65.65;35.17;;;-0.90;74.70;;;;;;5010815;28;20221;-78
2024/01/12 06:15:51;;;;;;;72.38;37.55;;;-0.90;74.70;;;;;;5011599;28;20208;-78
2024/01/12 06:18:22;;;;;;;77.25;36.20;;;-0.90;74.70;;;;;;5023182;28;20670;-78
2024/01/12 06:20:51;;;;;;;71.88;35.97;;;-0.80;74.80;;;;;;5032970;28;20381;-78
2024/01/12 06:23:19;;;;;;;71.25;35.90;;;-0.80;74.80;;;;;;5028243;28;20403;-77
2024/01/12 06:25:48;;;;;;;75.55;35.28;;;-0.80;74.80;;;;;;5027085;28;20213;-77
2024/01/12 06:28:16;;;;;;;63.35;34.40;;;-0.80;74.80;;;;;;5012516;28;20296;-78
2024/01/12 06:30:44;;;;;;;68.82;34.40;;;-0.80;74.90;;;;;;5011503;28;20253;-78
2024/01/12 06:33:14;;;;;;;67.63;35.13;;;-0.80;74.90;;;;;;5014916;28;20615;-78
2024/01/12 06:35:43;;;;;;;73.63;35.33;;;-0.80;74.90;;;;;;5012500;28;20205;-78
2024/01/12 06:38:11;;;;;;;62.13;35.78;;;-0.80;74.90;;;;;;5025771;28;20205;-78
2024/01/12 06:40:39;;;;;;;74.78;35.03;;;-0.80;75.00;;;;;;5011302;28;20243;-78
2024/01/12 06:43:09;;;;;;;71.55;37.45;;;-0.70;75.00;;;;;;5012751;28;20263;-78
2024/01/12 06:45:37;;;;;;;79.35;37.15;;;-0.80;75.00;;;;;;5008080;28;20276;-78
2024/01/12 06:48:06;;;;;;;69.40;34.22;;;-0.70;75.00;;;;;;5011899;28;20213;-78
2024/01/12 06:50:34;;;;;;;65.25;33.88;;;-0.70;75.10;;;;;;5011934;28;20589;-78
2024/01/12 06:53:08;;;;;;;74.93;36.72;;;-0.70;75.10;;;;;;5013943;28;20209;-78
2024/01/12 06:55:36;;;;;;;71.55;37.42;;;-0.70;75.10;;;;;;5014385;28;20296;-78
2024/01/12 06:58:04;;;;;;;69.28;36.30;;;-0.70;75.10;;;;;;5010992;28;20297;-78
2024/01/12 07:00:35;;;;;;;60.40;34.50;;;-0.70;75.10;;;;;;5007271;28;20261;-77
2024/01/12 07:03:04;;;;;;;66.40;35.03;;;-0.70;75.20;;;;;;5020804;28;20206;-78
2024/01/12 07:05:33;;;;;;;63.28;34.65;;;-0.70;75.20;;;;;;5008936;28;20229;-78
2024/01/12 07:08:01;;;;;;;70.82;37.25;;;-0.70;75.20;;;;;;5001617;28;20266;-78
2024/01/12 07:10:29;;;;;;;63.92;35.17;;;-0.60;75.20;;;;;;5007547;28;20627;-78
2024/01/12 07:12:57;;;;;;;65.72;35.53;;;-0.60;75.20;;;;;;5001370;28;20203;-77
2024/01/12 07:15:25;;;;;;;72.40;37.65;;;-0.60;75.30;;;;;;5001604;28;20816;-78
2024/01/12 07:17:54;;;;;;;64.07;33.85;;;-0.60;75.30;;;;;;5019812;28;20209;-78
2024/01/12 07:20:23;;;;;;;77.22;35.55;;;-0.60;75.30;;;;;;5004906;28;20222;-78
2024/01/12 07:22:51;;;;;;;66.93;36.58;;;-0.60;75.40;;;;;;5015493;28;20221;-78
2024/01/12 07:25:19;;;;;;;62.58;32.78;;;-0.60;75.40;;;;;;5004420;28;20202;-78
2024/01/12 07:27:47;;;;;;;64.15;33.55;;;-0.60;75.40;;;;;;5006346;28;20293;-78
2024/01/12 07:30:16;;;;;;;64.82;33.35;;;-0.60;75.40;;;;;;5022974;28;20212;-78
2024/01/12 07:32:44;;;;;;;61.85;31.98;;;-0.60;75.40;;;;;;5019349;28;20585;-77
2024/01/12 07:35:14;;;;;;;61.50;33.13;;;-0.60;75.50;;;;;;5000813;28;20246;-78
2024/01/12 07:37:42;;;;;;;58.38;31.27;;;-0.60;75.50;;;;;;5008538;28;20213;-78
2024/01/12 07:40:12;;;;;;;60.17;31.30;;;-0.60;75.60;;;;;;5015195;28;20323;-78
2024/01/12 07:42:42;;;;;;;57.08;32.15;;;-0.50;75.60;;;;;;5008836;28;20908;-78
2024/01/12 07:45:12;;;;;;;57.15;31.42;;;-0.50;75.60;;;;;;5002797;28;20260;-77
2024/01/12 07:47:41;;;;;;;58.97;30.85;;;-0.50;75.60;;;;;;5004771;28;20241;-78
2024/01/12 07:50:10;;;;;;;54.33;30.15;;;-0.50;75.60;;;;;;5022455;28;20296;-77
2024/01/12 07:52:40;;;;;;;50.78;29.80;;;-0.50;75.70;;;;;;5001493;28;20213;-78
2024/01/12 07:55:08;;;;;;;52.67;27.60;;;-0.50;75.70;;;;;;5002691;28;20202;-78
2024/01/12 07:57:36;;;;;;;53.22;28.73;;;-0.50;75.80;;;;;;5009093;28;20536;-78
2024/01/12 08:00:06;;;;;;;52.00;27.88;;;-0.50;75.80;;;;;;4998730;28;20210;-77
2024/01/12 08:02:38;;;;;;;50.25;27.08;;;-0.40;75.90;;;;;;5003101;28;20230;-78
2024/01/12 08:05:08;;;;;;;56.90;30.33;;;-0.40;75.90;;;;;;5003540;28;20197;-78
2024/01/12 08:07:36;;;;;;;50.13;28.17;;;-0.40;75.90;;;;;;5014425;28;20646;-78
2024/01/12 08:10:08;;;;;;;57.05;28.52;;;-0.40;76.00;;;;;;5003498;28;20202;-78
2024/01/12 08:12:37;;;;;;;52.80;30.17;;;-0.40;76.00;;;;;;5010573;28;20308;-78
2024/01/12 08:15:08;;;;;;;65.32;34.97;;;-0.40;76.00;;;;;;5002407;28;20233;-78
2024/01/12 08:17:37;;;;;;;61.10;32.05;;;-0.40;76.10;;;;;;5019387;28;20267;-78
2024/01/12 08:20:06;;;;;;;58.78;33.88;;;-0.40;76.10;;;;;;5003796;28;20225;-78
2024/01/12 08:22:35;;;;;;;59.92;34.30;;;-0.30;76.10;;;;;;5002936;28;20216;-78
2024/01/12 08:25:03;;;;;;;69.47;38.00;;;-0.30;76.10;;;;;;5019727;28;20627;-78
2024/01/12 08:27:32;;;;;;;61.60;33.65;;;-0.30;76.10;;;;;;5022096;28;20223;-78
2024/01/12 08:30:00;;;;;;;68.70;37.65;;;-0.30;76.20;;;;;;5021114;28;20677;-78
2024/01/12 08:32:28;;;;;;;63.80;34.53;;;-0.30;76.20;;;;;;5019117;28;20742;-78
2024/01/12 08:34:56;;;;;;;66.72;36.47;;;-0.30;76.30;;;;;;5000870;28;20226;-78
2024/01/12 08:37:24;;;;;;;69.15;34.50;;;-0.30;76.30;;;;;;5004804;28;20206;-78
2024/01/12 08:39:52;;;;;;;78.13;38.42;;;-0.30;76.40;;;;;;5001974;28;20211;-78
2024/01/12 08:42:20;;;;;;;73.85;39.65;;;-0.30;76.30;;;;;;5010059;28;20229;-78
2024/01/12 08:44:49;;;;;;;72.68;38.42;;;-0.30;76.30;;;;;;5003165;28;20221;-78
2024/01/12 08:47:19;;;;;;;70.40;39.05;;;-0.30;76.40;;;;;;5018870;28;20737;-78
2024/01/12 08:49:47;;;;;;;69.85;36.50;;;-0.30;76.40;;;;;;5012345;28;20210;-78
2024/01/12 08:52:15;;;;;;;75.28;35.55;;;-0.30;76.40;;;;;;5007966;28;20201;-77
2024/01/12 08:54:45;;;;;;;60.25;35.03;;;-0.20;76.50;;;;;;5005862;28;20209;-78
2024/01/12 08:57:13;;;;;;;66.20;36.22;;;-0.20;76.50;;;;;;5001809;28;20310;-78
2024/01/12 08:59:41;;;;;;;66.00;35.70;;;-0.20;76.60;;;;;;5005819;28;20206;-78
2024/01/12 09:02:10;;;;;;;71.00;34.22;;;-0.20;76.60;;;;;;5005536;28;20229;-78
2024/01/12 09:04:38;;;;;;;60.95;35.90;;;-0.20;76.60;;;;;;5018675;28;20541;-78
2024/01/12 09:07:07;;;;;;;61.78;32.13;;;-0.20;76.60;;;;;;5003893;28;20204;-78
2024/01/12 09:09:35;;;;;;;61.22;30.65;;;-0.10;76.60;;;;;;5004754;28;20209;-78
2024/01/12 09:12:04;;;;;;;56.58;30.00;;;-0.10;76.70;;;;;;5001604;28;20294;-78
2024/01/12 09:14:34;;;;;;;57.25;32.35;;;-0.10;76.70;;;;;;4999240;28;20211;-78
2024/01/12 09:17:02;;;;;;;61.60;32.03;;;-0.10;76.80;;;;;;5007189;28;20226;-78
2024/01/12 09:19:32;;;;;;;58.05;31.85;;;-0.10;76.80;;;;;;5000771;28;20269;-78
2024/01/12 09:22:03;;;;;;;50.28;29.20;;;-0.10;76.80;;;;;;5002653;28;20285;-78
2024/01/12 09:24:31;;;;;;;57.10;30.35;;;0.00;76.90;;;;;;5005256;28;20323;-78
2024/01/12 09:26:59;;;;;;;52.55;29.70;;;0.00;77.00;;;;;;5005605;28;20265;-78
2024/01/12 09:29:27;;;;;;;50.60;28.83;;;0.00;77.00;;;;;;5020772;28;20209;-78
2024/01/12 09:31:56;;;;;;;59.13;32.03;;;0.00;77.00;;;;;;5004385;28;20255;-78
2024/01/12 09:34:24;;;;;;;60.15;31.20;;;0.00;77.10;;;;;;5006952;28;20649;-78
2024/01/12 09:36:53;;;;;;;57.97;32.92;;;0.10;77.10;;;;;;5009111;28;20197;-78
2024/01/12 09:39:23;;;;;;;71.80;35.97;;;0.10;77.10;;;;;;5011145;28;20373;-78
2024/01/12 09:42:00;;;;;;;66.15;36.63;;;0.10;77.10;;;;;;5007354;28;20687;-78
2024/01/12 09:44:29;;;;;;;59.78;33.35;;;0.10;77.20;;;;;;5006071;28;21420;-78
2024/01/12 09:46:59;;;;;;;52.58;31.15;;;0.10;77.20;;;;;;5002486;28;20225;-78
2024/01/12 09:49:29;;;;;;;59.00;32.38;;;0.20;77.30;;;;;;5010229;28;20246;-78
2024/01/12 09:52:00;;;;;;;54.40;31.00;;;0.20;77.30;;;;;;5015708;28;20226;-78
2024/01/12 09:54:28;;;;;;;50.65;29.63;;;0.20;77.30;;;;;;5008306;28;20209;-78
2024/01/12 09:56:57;;;;;;;57.05;29.92;;;0.20;77.30;;;;;;5010230;28;20281;-78
2024/01/12 09:59:27;;;;;;;58.90;29.27;;;0.20;77.30;;;;;;5007882;28;20223;-78
2024/01/12 10:01:57;;;;;;;53.28;29.45;;;0.20;77.40;;;;;;5007441;28;20239;-78
2024/01/12 10:04:26;;;;;;;50.45;28.95;;;0.30;77.30;;;;;;5009060;28;20216;-78
2024/01/12 10:06:55;;;;;;;56.65;33.22;;;0.30;77.30;;;;;;5024099;28;20216;-78
2024/01/12 10:09:27;;;;;;;58.83;30.27;;;0.30;77.30;;;;;;5007627;28;20202;-78
2024/01/12 10:11:56;;;;;;;57.15;29.45;;;0.30;77.40;;;;;;5010998;28;20206;-78
2024/01/12 10:14:25;;;;;;;51.80;29.90;;;0.30;77.40;;;;;;5023029;28;20211;-78
2024/01/12 10:16:55;;;;;;;60.35;29.58;;;0.40;77.40;;;;;;5011371;28;20643;-78
2024/01/12 10:19:24;;;;;;;53.42;29.30;;;0.40;77.50;;;;;;5024511;28;20206;-78
2024/01/12 10:21:53;;;;;;;50.33;28.48;;;0.40;77.50;;;;;;5005576;28;20300;-78
2024/01/12 10:24:22;;;;;;;52.88;26.98;;;0.40;77.50;;;;;;5024008;28;20206;-78
2024/01/12 10:26:53;;;;;;;55.03;28.92;;;0.40;77.50;;;;;;5011630;28;20298;-78
2024/01/12 10:29:22;;;;;;;54.53;28.20;;;0.40;77.50;;;;;;5006267;28;20218;-78
2024/01/12 10:31:50;;;;;;;52.60;26.20;;;0.40;77.70;;;;;;5013495;28;20226;-78
2024/01/12 10:34:18;;;;;;;49.38;25.80;;;0.50;77.70;;;;;;5008236;28;20206;-78
2024/01/12 10:36:50;;;;;;;42.25;25.30;;;0.50;77.70;;;;;;5002718;28;20212;-78
2024/01/12 10:39:19;;;;;;;43.40;25.20;;;0.50;77.80;;;;;;5005204;28;20734;-78
2024/01/12 10:41:48;;;;;;;41.13;23.75;;;0.50;77.70;;;;;;5011307;28;20225;-78
2024/01/12 10:44:22;;;;;;;46.80;24.80;;;0.50;77.70;;;;;;5026457;28;20317;-78
2024/01/12 10:46:53;;;;;;;43.33;22.17;;;0.60;77.70;;;;;;5004299;28;20217;-78
2024/01/12 10:49:22;;;;;;;25.92;14.10;;;0.60;77.70;;;;;;5007108;28;20300;-78
2024/01/12 10:51:58;;;;;;;24.40;13.52;;;0.60;77.70;;;;;;5012702;28;20255;-78
2024/01/12 10:54:29;;;;;;;28.70;16.10;;;0.60;77.70;;;;;;5017594;28;20214;-78
2024/01/12 10:56:57;;;;;;;33.45;19.65;;;0.50;77.70;;;;;;5004541;28;20219;-78
2024/01/12 10:59:29;;;;;;;33.53;17.83;;;0.50;77.70;;;;;;5009179;28;20204;-78
2024/01/12 11:01:59;;;;;;;24.45;13.95;;;0.50;77.90;;;;;;5003168;28;20633;-78
2024/01/12 11:04:29;;;;;;;23.33;12.85;;;0.50;78.10;;;;;;5006229;28;20661;-78
2024/01/12 11:07:00;;;;;;;21.65;11.85;;;0.50;78.20;;;;;;5006796;28;20207;-78
2024/01/12 11:09:29;;;;;;;17.40;10.32;;;0.50;78.40;;;;;;5006521;28;20207;-78
2024/01/12 11:12:03;;;;;;;19.50;10.48;;;0.50;78.50;;;;;;5002308;28;20217;-78
2024/01/12 11:14:34;;;;;;;16.92;9.90;;;0.50;78.50;;;;;;5009383;28;20647;-78
2024/01/12 11:17:02;;;;;;;16.33;9.50;;;0.50;78.60;;;;;;5010818;28;20206;-78
2024/01/12 11:19:30;;;;;;;16.30;9.75;;;0.60;78.60;;;;;;5022329;28;20265;-78
2024/01/12 11:22:07;;;;;;;21.65;10.82;;;0.60;78.50;;;;;;5025323;28;20322;-76
2024/01/12 11:24:36;;;;;;;15.18;8.57;;;0.60;78.50;;;;;;5000207;28;20223;-77
2024/01/12 11:27:06;;;;;;;17.90;9.25;;;0.60;78.50;;;;;;5002706;28;20222;-75
2024/01/12 11:29:36;;;;;;;16.48;9.60;;;0.70;78.60;;;;;;5003810;28;20203;-76
2024/01/12 11:32:06;;;;;;;18.13;10.07;;;0.70;78.50;;;;;;5003616;28;20229;-76
2024/01/12 11:34:35;;;;;;;19.30;10.77;;;0.70;78.40;;;;;;5006142;28;20675;-76
2024/01/12 11:37:04;;;;;;;19.42;9.75;;;0.70;78.40;;;;;;5002690;28;20207;-76
2024/01/12 11:39:36;;;;;;;19.08;9.90;;;0.70;78.40;;;;;;5014909;28;20203;-76
2024/01/12 11:42:06;;;;;;;28.17;12.70;;;0.70;78.40;;;;;;5002613;28;20251;-76
2024/01/12 11:44:36;;;;;;;23.08;12.25;;;0.70;78.40;;;;;;5003348;28;20358;-76
2024/01/12 11:47:07;;;;;;;25.63;14.15;;;0.70;78.50;;;;;;5004255;28;20308;-77
2024/01/12 11:49:36;;;;;;;24.92;14.40;;;0.70;78.50;;;;;;5003144;28;20203;-77
2024/01/12 11:52:05;;;;;;;33.95;17.75;;;0.60;78.70;;;;;;5005949;28;20281;-77
2024/01/12 11:54:33;;;;;;;26.50;15.50;;;0.60;78.60;;;;;;5004000;28;20209;-77
2024/01/12 11:57:02;;;;;;;29.30;16.77;;;0.60;78.70;;;;;;5007234;28;20210;-77
2024/01/12 11:59:33;;;;;;;34.38;17.83;;;0.60;78.80;;;;;;5004446;28;20225;-77
2024/01/12 12:02:04;;;;;;;33.17;17.75;;;0.60;78.80;;;;;;5003810;28;20222;-77
2024/01/12 12:04:32;;;;;;;34.92;20.05;;;0.70;78.80;;;;;;5004365;28;20210;-78
2024/01/12 12:07:00;;;;;;;39.13;21.85;;;0.70;78.90;;;;;;5002722;28;20214;-77
2024/01/12 12:09:28;;;;;;;44.55;23.88;;;0.70;78.90;;;;;;5007324;28;20215;-77
2024/01/12 12:11:57;;;;;;;47.58;24.42;;;0.70;78.80;;;;;;5006284;28;20328;-77
2024/01/12 12:14:25;;;;;;;34.50;18.05;;;0.60;78.90;;;;;;5002958;28;20206;-77
2024/01/12 12:16:54;;;;;;;31.00;16.10;;;0.60;79.00;;;;;;5003690;28;20335;-77
2024/01/12 12:19:25;;;;;;;31.00;15.80;;;0.60;79.00;;;;;;5004342;28;20206;-77
2024/01/12 12:21:56;;;;;;;28.52;14.35;;;0.60;79.10;;;;;;5018214;28;20204;-77
2024/01/12 12:24:24;;;;;;;27.00;15.32;;;0.70;79.10;;;;;;5007267;28;20289;-76
2024/01/12 12:26:53;;;;;;;26.50;14.63;;;0.70;79.10;;;;;;5018948;28;20218;-77
2024/01/12 12:29:23;;;;;;;19.90;11.43;;;0.70;79.10;;;;;;5004114;28;20211;-77
2024/01/12 12:31:51;;;;;;;21.48;11.52;;;0.70;79.10;;;;;;5011331;28;20702;-77
2024/01/12 12:34:19;;;;;;;15.77;9.80;;;0.70;79.00;;;;;;5002755;28;20641;-77
2024/01/12 12:36:50;;;;;;;20.63;11.85;;;0.70;79.00;;;;;;5006077;28;20203;-77
2024/01/12 12:39:19;;;;;;;19.30;11.88;;;0.70;79.00;;;;;;5001850;28;20233;-77